Time;durP1;ratioP1;P1;durP2;ratioP2;P2;SDS_P1;SDS_P2;PMS_P1;PMS_P2;Temp;Humidity;BMP_temperature;BMP_pressure;BME280_temperature;BME280_humidity;BME280_pressure;Samples;Min_cycle;Max_cycle;Signal;HPM_P1;HPM_P2
2021/12/27 00:00:07;;;;;;;28.92;14.38;;;-0.70;99.90;;;;;;4991178;28;20181;-82
2021/12/27 00:02:33;;;;;;;23.08;13.23;;;-1.20;99.90;;;;;;4972970;28;20523;-82
2021/12/27 00:04:59;;;;;;;21.35;12.13;;;-1.20;99.90;;;;;;4990963;28;20050;-81
2021/12/27 00:07:25;;;;;;;21.30;10.82;;;-1.00;99.90;;;;;;4976126;28;20046;-82
2021/12/27 00:09:50;;;;;;;23.90;10.63;;;-1.20;99.90;;;;;;4989809;28;20465;-83
2021/12/27 00:12:16;;;;;;;27.25;11.50;;;-1.30;99.90;;;;;;4957517;28;20110;-82
2021/12/27 00:14:42;;;;;;;21.70;11.93;;;-1.20;99.90;;;;;;4972593;28;20109;-83
2021/12/27 00:17:07;;;;;;;22.65;11.77;;;-0.70;99.90;;;;;;4973179;28;20054;-82
2021/12/27 00:19:33;;;;;;;23.38;11.32;;;-1.50;99.90;;;;;;4972436;28;20050;-82
2021/12/27 00:21:59;;;;;;;26.25;14.23;;;-1.00;99.90;;;;;;4990595;28;20081;-83
2021/12/27 00:24:24;;;;;;;20.95;11.48;;;-1.50;99.90;;;;;;4989292;28;20054;-82
2021/12/27 00:26:52;;;;;;;24.25;12.68;;;-1.60;99.90;;;;;;4972715;28;20045;-83
2021/12/27 00:29:17;;;;;;;25.67;13.10;;;-1.10;99.90;;;;;;4971547;28;20512;-83
2021/12/27 00:31:43;;;;;;;26.88;14.13;;;-1.20;99.90;;;;;;4974445;28;20050;-83
2021/12/27 00:34:09;;;;;;;23.88;12.05;;;-1.40;99.90;;;;;;4975521;28;20042;-83
2021/12/27 00:36:34;;;;;;;21.45;11.40;;;-1.00;99.90;;;;;;4977173;28;20057;-83
2021/12/27 00:39:00;;;;;;;19.15;9.60;;;-1.10;99.90;;;;;;4976230;28;20049;-83
2021/12/27 00:41:26;;;;;;;22.50;12.25;;;-1.60;99.90;;;;;;4975823;28;20043;-82
2021/12/27 00:43:51;;;;;;;24.63;11.82;;;-1.60;99.90;;;;;;4975786;28;20049;-83
2021/12/27 00:46:17;;;;;;;23.35;11.65;;;-1.60;99.90;;;;;;4974924;28;20046;-83
2021/12/27 00:48:43;;;;;;;27.30;12.95;;;-1.50;99.90;;;;;;4974975;28;20133;-82
2021/12/27 00:51:10;;;;;;;23.83;13.18;;;-1.50;99.90;;;;;;4975262;28;20114;-82
2021/12/27 00:53:36;;;;;;;24.50;11.60;;;-0.80;99.90;;;;;;4992493;28;20168;-83
2021/12/27 00:56:01;;;;;;;26.50;14.02;;;-1.40;99.90;;;;;;4959949;28;20050;-82
2021/12/27 00:58:27;;;;;;;21.83;14.13;;;-1.40;99.90;;;;;;4966118;28;20065;-83
2021/12/27 01:00:53;;;;;;;26.35;13.13;;;-1.30;99.90;;;;;;4995907;28;20136;-83
2021/12/27 01:03:20;;;;;;;25.25;12.63;;;-1.30;99.90;;;;;;4979360;28;20499;-83
2021/12/27 01:05:46;;;;;;;23.77;12.20;;;-1.30;99.90;;;;;;4998238;28;20072;-83
2021/12/27 01:08:15;;;;;;;26.23;13.68;;;-1.30;99.90;;;;;;4981907;28;20049;-83
2021/12/27 01:13:59;;;;;;;26.90;13.50;;;-0.70;99.90;;;;;;4996655;28;20062;-82
2021/12/27 01:16:14;;;;;;;27.00;14.35;;;-1.00;99.90;;;;;;5014778;28;20061;-82
2021/12/27 01:18:46;;;;;;;25.88;10.98;;;-1.20;99.90;;;;;;4981566;28;20511;-82
2021/12/27 01:21:13;;;;;;;23.48;11.05;;;-1.20;99.90;;;;;;4996234;28;20105;-83
2021/12/27 01:23:39;;;;;;;22.38;11.65;;;-1.20;99.90;;;;;;4994012;28;20065;-83
2021/12/27 01:26:05;;;;;;;24.95;12.35;;;-1.00;99.90;;;;;;4978187;28;20627;-83
2021/12/27 01:28:32;;;;;;;26.08;14.50;;;-1.20;99.90;;;;;;4977471;28;20862;-83
2021/12/27 01:30:57;;;;;;;24.42;12.48;;;-1.20;99.90;;;;;;4993331;28;20085;-83
2021/12/27 01:33:24;;;;;;;23.40;11.75;;;-1.20;99.90;;;;;;4976658;28;20084;-83
2021/12/27 01:35:51;;;;;;;20.02;9.80;;;-1.10;99.90;;;;;;4993490;28;20077;-83
2021/12/27 01:38:17;;;;;;;24.65;14.30;;;-1.10;99.90;;;;;;4993263;28;20108;-83
2021/12/27 01:40:45;;;;;;;27.60;13.88;;;-1.10;99.90;;;;;;4977629;28;20136;-83
2021/12/27 01:43:15;;;;;;;26.58;13.68;;;-1.10;99.90;;;;;;4976551;28;20120;-83
2021/12/27 01:45:47;;;;;;;27.10;12.77;;;-0.30;99.90;;;;;;4992815;28;20104;-83
2021/12/27 01:48:16;;;;;;;23.23;13.32;;;-1.10;99.90;;;;;;4992714;28;20057;-83
2021/12/27 01:50:44;;;;;;;23.92;13.40;;;-1.10;99.90;;;;;;4976582;28;20053;-83
2021/12/27 01:53:11;;;;;;;27.40;13.80;;;-1.00;99.90;;;;;;4993975;28;20060;-83
2021/12/27 01:55:37;;;;;;;25.50;14.05;;;-0.70;99.90;;;;;;4993304;28;20053;-83
2021/12/27 01:58:04;;;;;;;30.38;14.00;;;-1.00;99.90;;;;;;4975504;28;20123;-83
2021/12/27 02:00:30;;;;;;;18.80;10.55;;;-1.00;99.90;;;;;;4975385;28;20390;-83
2021/12/27 02:02:56;;;;;;;23.48;14.70;;;-1.00;99.90;;;;;;4974555;28;20137;-83
2021/12/27 02:05:22;;;;;;;25.85;14.02;;;-1.00;99.90;;;;;;4991970;28;20043;-83
2021/12/27 02:07:48;;;;;;;24.90;13.82;;;-0.30;99.90;;;;;;4974344;28;20255;-83
2021/12/27 02:10:14;;;;;;;26.13;16.08;;;-1.00;99.90;;;;;;4958740;28;20046;-83
2021/12/27 02:12:40;;;;;;;30.00;14.57;;;-0.50;99.90;;;;;;4958759;28;20085;-83
2021/12/27 02:15:09;;;;;;;24.88;13.63;;;-1.10;99.90;;;;;;4957211;28;20054;-82
2021/12/27 02:17:41;;;;;;;21.25;13.10;;;-0.90;99.90;;;;;;4957292;28;20050;-83
2021/12/27 02:20:09;;;;;;;26.85;13.95;;;-1.10;99.90;;;;;;4990184;28;20046;-82
2021/12/27 02:22:37;;;;;;;28.42;14.52;;;-0.90;99.90;;;;;;4957141;28;20559;-82
2021/12/27 02:25:05;;;;;;;32.80;15.63;;;-1.10;99.90;;;;;;4972918;28;20042;-83
2021/12/27 02:27:31;;;;;;;24.90;12.35;;;-0.90;99.90;;;;;;4990970;28;20101;-82
2021/12/27 02:29:57;;;;;;;24.23;13.13;;;0.00;99.90;;;;;;4973600;28;20042;-82
2021/12/27 02:32:22;;;;;;;26.55;15.55;;;-1.20;99.90;;;;;;4972988;28;20106;-83
2021/12/27 02:34:48;;;;;;;26.70;14.80;;;0.20;99.90;;;;;;4956478;28;20125;-83
2021/12/27 02:37:14;;;;;;;27.95;13.35;;;-0.90;99.90;;;;;;4971768;28;20050;-83
2021/12/27 02:39:40;;;;;;;31.35;16.05;;;0.20;99.90;;;;;;4973174;28;20092;-83
2021/12/27 02:42:06;;;;;;;28.65;14.52;;;-0.90;99.90;;;;;;4972639;28;20057;-83
2021/12/27 02:44:34;;;;;;;26.45;14.50;;;-0.80;99.90;;;;;;4956302;28;20138;-82
2021/12/27 02:47:00;;;;;;;27.30;13.93;;;-0.80;99.90;;;;;;4972323;28;20061;-83
2021/12/27 02:49:25;;;;;;;30.95;15.60;;;-0.50;99.90;;;;;;4972354;28;20481;-82
2021/12/27 02:51:52;;;;;;;27.80;14.18;;;-0.80;99.90;;;;;;4972043;28;20050;-82
2021/12/27 02:54:18;;;;;;;25.38;14.02;;;-0.80;99.90;;;;;;4971163;28;20062;-83
2021/12/27 02:56:44;;;;;;;26.20;14.82;;;-0.80;99.90;;;;;;4972897;28;20057;-82
2021/12/27 02:59:09;;;;;;;27.45;14.98;;;0.00;99.90;;;;;;4983632;28;20046;-82
2021/12/27 03:01:35;;;;;;;35.28;16.65;;;-0.80;99.90;;;;;;5010042;28;20095;-82
2021/12/27 03:04:01;;;;;;;28.88;15.75;;;-0.10;99.90;;;;;;4991663;28;20428;-83
2021/12/27 03:06:26;;;;;;;35.70;15.55;;;-0.80;99.90;;;;;;4991279;28;20207;-82
2021/12/27 03:08:52;;;;;;;29.40;15.75;;;-0.80;99.90;;;;;;4991910;28;20046;-82
2021/12/27 03:11:17;;;;;;;26.92;13.65;;;-0.80;99.90;;;;;;4975096;28;20492;-82
2021/12/27 03:13:46;;;;;;;24.65;12.13;;;-0.70;99.90;;;;;;4974605;28;20160;-82
2021/12/27 03:16:16;;;;;;;32.95;16.00;;;-0.70;99.90;;;;;;4991362;28;20054;-82
2021/12/27 03:18:46;;;;;;;28.15;15.00;;;-0.70;99.90;;;;;;4975839;28;20053;-82
2021/12/27 03:21:11;;;;;;;27.35;13.07;;;-0.40;99.90;;;;;;4992022;28;20058;-82
2021/12/27 03:23:39;;;;;;;32.30;16.75;;;-0.70;99.90;;;;;;4976017;28;20041;-83
2021/12/27 03:26:05;;;;;;;28.88;15.77;;;-0.60;99.90;;;;;;5010628;28;20053;-82
2021/12/27 03:28:33;;;;;;;27.88;14.30;;;-0.60;99.90;;;;;;4976385;28;20053;-82
2021/12/27 03:30:59;;;;;;;29.25;16.63;;;0.00;99.90;;;;;;4992707;28;20053;-82
2021/12/27 03:33:26;;;;;;;31.70;17.00;;;-0.60;99.90;;;;;;4994173;28;20054;-82
2021/12/27 03:36:02;;;;;;;27.75;15.48;;;-0.60;99.90;;;;;;4970499;28;20468;-83
2021/12/27 03:38:43;;;;;;;31.73;15.88;;;-0.60;99.90;;;;;;4962186;28;20069;-82
2021/12/27 03:41:13;;;;;;;23.75;12.07;;;-0.60;99.90;;;;;;4974909;28;20088;-82
2021/12/27 03:43:38;;;;;;;26.48;14.35;;;-0.60;99.90;;;;;;4971698;28;20046;-82
2021/12/27 03:46:04;;;;;;;25.20;15.13;;;-0.60;99.90;;;;;;4972680;28;20396;-82
2021/12/27 03:48:30;;;;;;;25.45;14.20;;;-0.60;99.90;;;;;;4956017;28;20050;-82
2021/12/27 03:50:56;;;;;;;30.60;16.15;;;-0.50;99.90;;;;;;4989126;28;20086;-82
2021/12/27 03:53:22;;;;;;;26.48;15.23;;;0.20;99.90;;;;;;4971670;28;20080;-83
2021/12/27 03:55:48;;;;;;;30.02;16.33;;;-0.50;99.90;;;;;;4988648;28;20046;-82
2021/12/27 03:58:27;;;;;;;28.70;15.00;;;0.20;99.90;;;;;;4954592;28;20092;-82
2021/12/27 04:03:21;;;;;;;28.35;13.68;;;0.20;99.90;;;;;;4988978;28;20065;-83
2021/12/27 04:05:47;;;;;;;25.63;14.43;;;-0.50;99.90;;;;;;4989318;28;20157;-82
2021/12/27 04:08:13;;;;;;;32.08;16.92;;;0.20;99.90;;;;;;4987247;28;20054;-82
2021/12/27 04:10:41;;;;;;;32.30;15.80;;;-0.10;99.90;;;;;;4988918;28;20112;-82
2021/12/27 04:13:09;;;;;;;31.42;15.75;;;-0.60;99.90;;;;;;4988198;28;20050;-82
2021/12/27 04:15:35;;;;;;;31.63;18.65;;;0.00;99.90;;;;;;4987060;28;20133;-82
2021/12/27 04:18:02;;;;;;;30.95;17.08;;;-1.60;99.90;;;;;;4971175;28;20058;-82
2021/12/27 04:20:28;;;;;;;32.15;18.25;;;-0.60;99.90;;;;;;4971308;28;20058;-82
2021/12/27 04:22:54;;;;;;;32.05;15.75;;;0.30;99.90;;;;;;4971409;28;20097;-82
2021/12/27 04:25:21;;;;;;;32.22;18.33;;;-0.50;99.90;;;;;;4970883;28;20050;-82
2021/12/27 04:27:48;;;;;;;29.98;15.43;;;-0.40;99.90;;;;;;4987114;28;20050;-82
2021/12/27 04:30:15;;;;;;;27.23;16.27;;;0.40;99.90;;;;;;4988521;28;20121;-82
2021/12/27 04:32:41;;;;;;;32.67;18.73;;;0.70;99.90;;;;;;4987738;28;20085;-82
2021/12/27 04:35:08;;;;;;;31.13;16.90;;;-0.70;99.90;;;;;;4971390;28;20137;-82
2021/12/27 04:37:33;;;;;;;27.13;16.05;;;-0.40;99.90;;;;;;4971590;28;20062;-82
2021/12/27 04:40:00;;;;;;;34.65;19.13;;;-0.40;99.90;;;;;;4971333;28;20038;-81
2021/12/27 04:42:29;;;;;;;28.92;15.75;;;-0.20;99.90;;;;;;4971350;28;20141;-82
2021/12/27 04:44:55;;;;;;;29.88;17.08;;;-0.30;99.90;;;;;;4971620;28;20153;-82
2021/12/27 04:47:21;;;;;;;31.02;16.90;;;-0.30;99.90;;;;;;4988344;28;20669;-82
2021/12/27 04:49:47;;;;;;;29.45;16.95;;;-0.50;99.90;;;;;;4971271;28;20050;-82
2021/12/27 04:52:13;;;;;;;31.15;18.27;;;-0.40;99.90;;;;;;4987749;28;20516;-82
2021/12/27 04:54:39;;;;;;;30.48;17.63;;;0.40;99.90;;;;;;4970648;28;20038;-82
2021/12/27 04:57:05;;;;;;;31.35;17.05;;;-0.40;99.90;;;;;;4954854;28;20050;-83
2021/12/27 04:59:31;;;;;;;33.80;18.45;;;-0.30;99.90;;;;;;4973574;28;20105;-83
2021/12/27 05:01:56;;;;;;;28.25;16.42;;;-0.30;99.90;;;;;;4951086;28;20130;-82
2021/12/27 05:04:22;;;;;;;30.58;17.13;;;-0.20;99.90;;;;;;4951491;28;20062;-82
2021/12/27 05:06:48;;;;;;;32.53;18.05;;;-0.20;99.90;;;;;;4951573;28;20057;-83
2021/12/27 05:09:14;;;;;;;28.88;15.20;;;-0.20;99.90;;;;;;4967547;28;20058;-83
2021/12/27 05:11:40;;;;;;;29.80;16.55;;;-0.20;99.90;;;;;;4968573;28;20047;-82
2021/12/27 05:14:07;;;;;;;29.58;16.58;;;-0.20;99.90;;;;;;4952784;28;20072;-82
2021/12/27 05:16:32;;;;;;;32.22;16.77;;;-0.20;99.90;;;;;;4952510;28;20054;-82
2021/12/27 05:18:58;;;;;;;32.55;17.40;;;-0.20;99.90;;;;;;4954420;28;20051;-83
2021/12/27 05:21:24;;;;;;;33.78;17.15;;;-0.20;99.90;;;;;;4970457;28;20062;-82
2021/12/27 05:23:50;;;;;;;32.95;16.83;;;-0.10;99.90;;;;;;4954780;28;20047;-83
2021/12/27 05:26:15;;;;;;;28.50;16.13;;;0.70;99.90;;;;;;4955255;28;20051;-82
2021/12/27 05:28:41;;;;;;;31.15;17.90;;;0.40;99.90;;;;;;4972236;28;20386;-82
2021/12/27 05:31:07;;;;;;;29.67;15.10;;;-0.20;99.90;;;;;;4954657;28;20062;-82
2021/12/27 05:33:33;;;;;;;30.73;16.35;;;-0.20;99.90;;;;;;4954896;28;20102;-82
2021/12/27 05:35:58;;;;;;;35.28;19.70;;;-0.20;99.90;;;;;;4970535;28;20122;-82
2021/12/27 05:38:24;;;;;;;31.95;17.17;;;-0.10;99.90;;;;;;4955011;28;20093;-82
2021/12/27 05:40:50;;;;;;;30.42;17.05;;;-0.10;99.90;;;;;;4972641;28;20085;-82
2021/12/27 05:43:15;;;;;;;33.60;18.15;;;-0.10;99.90;;;;;;4954859;28;20174;-82
2021/12/27 05:45:41;;;;;;;34.78;18.58;;;-0.20;99.90;;;;;;4970699;28;20157;-82
2021/12/27 05:48:07;;;;;;;33.97;18.55;;;-0.20;99.90;;;;;;4954798;28;20429;-82
2021/12/27 05:50:34;;;;;;;30.65;16.38;;;0.60;99.90;;;;;;4954309;28;20074;-82
2021/12/27 05:53:01;;;;;;;32.40;17.60;;;0.30;99.90;;;;;;4970441;28;20186;-82
2021/12/27 05:55:27;;;;;;;36.38;17.00;;;0.40;99.90;;;;;;4937873;28;20054;-82
2021/12/27 05:57:53;;;;;;;34.90;17.35;;;-0.10;99.90;;;;;;4939187;28;20055;-82
2021/12/27 06:00:19;;;;;;;32.95;18.33;;;-0.20;99.90;;;;;;4973054;28;20073;-82
2021/12/27 06:02:45;;;;;;;33.65;18.38;;;0.60;99.90;;;;;;4957556;28;20145;-82
2021/12/27 06:05:12;;;;;;;34.63;16.38;;;-0.10;99.90;;;;;;4973893;28;20239;-82
2021/12/27 06:07:37;;;;;;;34.70;18.42;;;-0.10;99.90;;;;;;4973506;28;20046;-82
2021/12/27 06:10:04;;;;;;;37.45;19.65;;;-0.10;99.90;;;;;;4990689;28;20050;-82
2021/12/27 06:12:31;;;;;;;36.60;17.67;;;-0.10;99.90;;;;;;4973635;28;20137;-82
2021/12/27 06:14:57;;;;;;;41.28;19.17;;;-0.10;99.90;;;;;;4989968;28;20513;-82
2021/12/27 06:17:23;;;;;;;39.10;20.15;;;0.90;99.90;;;;;;4971790;28;20090;-83
2021/12/27 06:19:48;;;;;;;37.88;17.85;;;-0.10;99.90;;;;;;4976071;28;20412;-83
2021/12/27 06:22:14;;;;;;;37.17;18.50;;;0.60;99.90;;;;;;5010266;28;20428;-83
2021/12/27 06:24:40;;;;;;;39.10;20.05;;;-0.20;99.90;;;;;;4992780;28;20512;-83
2021/12/27 06:27:05;;;;;;;43.05;22.83;;;-0.20;99.90;;;;;;4992810;28;20565;-83
2021/12/27 06:29:34;;;;;;;36.35;19.58;;;-0.10;99.90;;;;;;4977088;28;20049;-83
2021/12/27 06:31:59;;;;;;;36.85;19.83;;;-0.30;99.90;;;;;;4993098;28;20064;-83
2021/12/27 06:34:25;;;;;;;36.47;19.17;;;0.00;99.90;;;;;;4993303;28;20084;-83
2021/12/27 06:36:51;;;;;;;43.83;20.00;;;0.60;99.90;;;;;;4976764;28;20052;-83
2021/12/27 06:39:17;;;;;;;46.17;21.80;;;-0.20;99.90;;;;;;4976468;28;20062;-83
2021/12/27 06:41:42;;;;;;;48.22;24.05;;;0.10;99.90;;;;;;4976629;28;20053;-83
2021/12/27 06:44:08;;;;;;;43.00;25.35;;;-0.30;99.90;;;;;;4992654;28;20050;-83
2021/12/27 06:46:34;;;;;;;45.30;24.45;;;-0.30;99.90;;;;;;5010834;28;20407;-83
2021/12/27 06:49:00;;;;;;;42.90;23.35;;;-0.40;99.90;;;;;;4991931;28;20037;-83
2021/12/27 06:51:25;;;;;;;47.85;22.40;;;-0.20;99.90;;;;;;4992514;28;20863;-83
2021/12/27 06:53:51;;;;;;;40.78;20.05;;;0.10;99.90;;;;;;4992043;28;20092;-83
2021/12/27 06:56:17;;;;;;;47.33;24.10;;;-0.20;99.90;;;;;;4991537;28;20080;-83
2021/12/27 06:58:42;;;;;;;49.03;24.38;;;-0.20;99.90;;;;;;4991606;28;20194;-83
2021/12/27 07:01:08;;;;;;;43.65;22.83;;;-0.20;99.90;;;;;;4991852;28;20053;-83
2021/12/27 07:03:35;;;;;;;42.25;22.48;;;-0.20;99.90;;;;;;5008058;28;20042;-85
2021/12/27 07:06:00;;;;;;;42.13;23.48;;;0.20;99.90;;;;;;5009223;28;20488;-83
2021/12/27 07:08:27;;;;;;;48.25;22.88;;;-0.10;99.90;;;;;;4991449;28;20062;-83
2021/12/27 07:10:53;;;;;;;44.67;22.17;;;-0.10;99.90;;;;;;4975880;28;20119;-83
2021/12/27 07:13:19;;;;;;;46.42;23.00;;;0.70;99.90;;;;;;5009671;28;20051;-83
2021/12/27 07:15:45;;;;;;;55.50;27.23;;;-0.10;99.90;;;;;;5008353;28;20457;-83
2021/12/27 07:18:13;;;;;;;61.17;28.60;;;0.10;99.90;;;;;;4991529;28;20053;-83
2021/12/27 07:20:39;;;;;;;56.95;26.95;;;-0.10;99.90;;;;;;4974438;28;20058;-83
2021/12/27 07:23:07;;;;;;;56.60;26.73;;;-0.10;99.90;;;;;;4990837;28;20125;-83
2021/12/27 07:25:33;;;;;;;69.80;30.40;;;-0.20;99.90;;;;;;5008252;28;20108;-84
2021/12/27 07:27:59;;;;;;;67.40;28.60;;;-0.10;99.90;;;;;;4974763;28;20050;-83
2021/12/27 07:30:28;;;;;;;63.00;26.90;;;-0.20;99.90;;;;;;4974802;28;20440;-83
2021/12/27 07:32:54;;;;;;;48.92;22.00;;;-0.10;99.90;;;;;;5008353;28;20072;-83
2021/12/27 07:35:20;;;;;;;75.85;32.67;;;-0.10;99.90;;;;;;4974960;28;20363;-83
2021/12/27 07:37:46;;;;;;;62.55;29.40;;;-0.10;99.90;;;;;;5008283;28;20092;-83
2021/12/27 07:40:12;;;;;;;76.70;30.98;;;-0.10;99.90;;;;;;4990163;28;20050;-83
2021/12/27 07:42:38;;;;;;;66.90;29.55;;;-0.10;99.90;;;;;;4990610;28;20050;-83
2021/12/27 07:45:04;;;;;;;62.75;28.15;;;-0.10;99.90;;;;;;5008755;28;20053;-83
2021/12/27 07:47:30;;;;;;;60.28;27.77;;;-0.10;99.90;;;;;;5008722;28;20071;-84
2021/12/27 07:49:55;;;;;;;63.58;26.73;;;0.00;99.90;;;;;;5008284;28;20050;-83
2021/12/27 07:52:21;;;;;;;75.38;31.30;;;0.00;99.90;;;;;;5005904;28;20052;-83
2021/12/27 07:54:46;;;;;;;73.88;31.77;;;0.20;99.90;;;;;;5023395;28;20045;-83
2021/12/27 07:57:12;;;;;;;77.15;35.13;;;0.30;99.90;;;;;;5006062;28;20543;-84
2021/12/27 07:59:38;;;;;;;73.28;31.75;;;0.00;99.90;;;;;;5005662;28;20148;-84
2021/12/27 08:02:04;;;;;;;68.38;30.25;;;0.30;99.90;;;;;;5001449;28;20046;-84
2021/12/27 08:04:30;;;;;;;70.55;31.10;;;0.10;99.90;;;;;;4989141;28;20049;-84
2021/12/27 08:06:56;;;;;;;78.78;33.03;;;0.30;99.90;;;;;;4988934;28;20054;-84
2021/12/27 08:09:25;;;;;;;73.15;32.28;;;-0.20;99.90;;;;;;4989725;28;20095;-84
2021/12/27 08:11:51;;;;;;;77.10;35.58;;;0.10;99.90;;;;;;4973258;28;20049;-84
2021/12/27 08:14:17;;;;;;;74.70;32.42;;;0.90;99.90;;;;;;4989457;28;20429;-84
2021/12/27 08:16:43;;;;;;;73.57;33.70;;;0.40;99.90;;;;;;4990638;28;20054;-84
2021/12/27 08:19:08;;;;;;;77.90;31.95;;;0.20;99.90;;;;;;4996864;28;20607;-84
2021/12/27 08:21:34;;;;;;;75.85;34.15;;;0.10;99.90;;;;;;5024972;28;20573;-84
2021/12/27 08:24:00;;;;;;;74.50;33.78;;;1.00;99.90;;;;;;5025018;28;20068;-84
2021/12/27 08:26:26;;;;;;;74.80;33.67;;;0.00;99.90;;;;;;4992204;28;20595;-83
2021/12/27 08:28:53;;;;;;;78.63;30.80;;;0.30;99.90;;;;;;5008460;28;20049;-84
2021/12/27 08:31:19;;;;;;;86.53;34.22;;;0.90;99.90;;;;;;5008865;28;20072;-83
2021/12/27 08:33:45;;;;;;;74.13;32.30;;;0.10;99.90;;;;;;5008505;28;20761;-84
2021/12/27 08:36:13;;;;;;;74.55;33.58;;;0.50;99.90;;;;;;5024610;28;20075;-84
2021/12/27 08:38:39;;;;;;;78.45;32.28;;;0.30;99.90;;;;;;4991818;28;20045;-84
2021/12/27 08:41:05;;;;;;;81.93;32.42;;;0.30;99.90;;;;;;5007145;28;20049;-84
2021/12/27 08:43:31;;;;;;;72.05;31.45;;;0.20;99.90;;;;;;5006652;28;20041;-84
2021/12/27 08:45:59;;;;;;;81.07;35.00;;;0.40;99.90;;;;;;4991293;28;20403;-83
2021/12/27 08:48:25;;;;;;;78.43;31.77;;;1.30;99.90;;;;;;5006943;28;20125;-84
2021/12/27 08:50:50;;;;;;;73.57;32.20;;;0.40;99.90;;;;;;4990161;28;20187;-84
2021/12/27 08:53:16;;;;;;;72.57;30.80;;;0.50;99.90;;;;;;5026636;28;20099;-83
2021/12/27 08:55:42;;;;;;;74.35;30.27;;;0.60;99.90;;;;;;5004103;28;20052;-84
2021/12/27 08:58:08;;;;;;;74.55;31.60;;;1.10;99.90;;;;;;4974228;28;20053;-83
2021/12/27 09:00:34;;;;;;;73.90;29.15;;;0.50;99.90;;;;;;4974739;28;20632;-83
2021/12/27 09:02:59;;;;;;;83.97;34.08;;;0.70;99.90;;;;;;4974603;28;20116;-84
2021/12/27 09:05:25;;;;;;;75.63;31.75;;;1.20;99.90;;;;;;4991574;28;20049;-84
2021/12/27 09:07:51;;;;;;;85.03;30.90;;;1.30;99.90;;;;;;4964914;28;20091;-84
2021/12/27 09:10:17;;;;;;;70.57;28.65;;;0.60;99.90;;;;;;4994785;28;20048;-83
2021/12/27 09:12:43;;;;;;;67.30;28.58;;;0.60;99.90;;;;;;4974992;28;20054;-84
2021/12/27 09:15:11;;;;;;;79.88;34.08;;;0.90;99.90;;;;;;5010179;28;20425;-84
2021/12/27 09:17:36;;;;;;;67.63;28.67;;;0.60;99.90;;;;;;4994042;28;20084;-84
2021/12/27 09:20:04;;;;;;;86.97;34.30;;;0.60;99.90;;;;;;5002852;28;20113;-84
2021/12/27 09:22:30;;;;;;;74.13;30.70;;;0.60;99.90;;;;;;4972251;28;20441;-85
2021/12/27 09:24:56;;;;;;;83.70;31.13;;;0.90;99.90;;;;;;4986254;28;20052;-84
2021/12/27 09:27:22;;;;;;;81.20;31.17;;;0.60;99.90;;;;;;4974618;28;20046;-84
2021/12/27 09:29:49;;;;;;;91.75;32.83;;;0.70;99.90;;;;;;4990312;28;20093;-85
2021/12/27 09:32:15;;;;;;;82.50;31.58;;;0.70;99.90;;;;;;4992963;28;20064;-86
2021/12/27 09:34:41;;;;;;;100.07;33.05;;;1.20;99.90;;;;;;4992744;28;20124;-85
2021/12/27 09:37:07;;;;;;;88.63;33.05;;;0.70;99.90;;;;;;4976388;28;20520;-85
2021/12/27 09:39:32;;;;;;;94.00;36.03;;;0.70;99.90;;;;;;5010703;28;20112;-86
2021/12/27 09:41:59;;;;;;;95.07;33.65;;;0.70;99.90;;;;;;4991409;28;20049;-86
2021/12/27 09:44:24;;;;;;;99.43;34.80;;;0.70;99.90;;;;;;4992245;28;20077;-86
2021/12/27 09:46:50;;;;;;;103.68;36.40;;;1.30;99.90;;;;;;5010345;28;20073;-85
2021/12/27 09:49:19;;;;;;;103.82;36.72;;;0.90;99.90;;;;;;5010438;28;20054;-86
2021/12/27 09:51:46;;;;;;;127.40;40.53;;;0.90;99.90;;;;;;4976113;28;20054;-86
2021/12/27 09:54:13;;;;;;;124.07;36.10;;;1.30;99.90;;;;;;5010295;28;20543;-86
2021/12/27 09:56:39;;;;;;;128.20;38.70;;;0.90;99.90;;;;;;5009948;28;20069;-86
2021/12/27 09:59:05;;;;;;;118.00;37.20;;;0.80;99.90;;;;;;4975499;28;20172;-86
2021/12/27 10:01:31;;;;;;;118.63;38.60;;;0.80;99.90;;;;;;4991921;28;20073;-86
2021/12/27 10:03:59;;;;;;;134.23;44.78;;;1.10;99.90;;;;;;4991695;28;20050;-86
2021/12/27 10:06:28;;;;;;;132.48;38.92;;;0.80;99.90;;;;;;5009137;28;20082;-86
2021/12/27 10:08:56;;;;;;;137.32;42.70;;;1.00;99.90;;;;;;5009517;28;20769;-87
2021/12/27 10:11:25;;;;;;;133.18;40.80;;;0.90;99.90;;;;;;4992508;28;20078;-85
2021/12/27 10:14:13;;;;;;;133.05;42.05;;;1.20;99.90;;;;;;4989624;28;20124;-86
2021/12/27 10:17:10;;;;;;;109.03;34.22;;;1.00;99.90;;;;;;4993570;28;20085;-86
2021/12/27 10:19:37;;;;;;;121.55;36.15;;;1.00;99.90;;;;;;4977069;28;20151;-85
2021/12/27 10:22:08;;;;;;;141.20;40.03;;;1.10;99.90;;;;;;5002426;28;20054;-86
2021/12/27 10:24:34;;;;;;;138.52;40.67;;;1.10;99.90;;;;;;4989053;28;20074;-85
2021/12/27 10:27:02;;;;;;;143.95;40.25;;;1.20;99.90;;;;;;5003823;28;20518;-86
2021/12/27 10:29:30;;;;;;;118.97;40.05;;;1.10;99.90;;;;;;5008021;28;20048;-85
2021/12/27 10:32:18;;;;;;;126.20;37.45;;;1.10;99.90;;;;;;5002855;28;20116;-86
2021/12/27 10:34:50;;;;;;;131.68;40.28;;;1.20;99.90;;;;;;4995496;28;20703;-86
2021/12/27 10:37:30;;;;;;;136.48;38.72;;;1.50;99.90;;;;;;4982549;28;20046;-86
2021/12/27 10:40:02;;;;;;;151.43;42.45;;;1.20;99.90;;;;;;5007014;28;20068;-86
2021/12/27 10:42:35;;;;;;;131.93;34.53;;;1.30;99.90;;;;;;4983928;28;20121;-86
2021/12/27 10:45:04;;;;;;;177.88;43.15;;;1.30;99.90;;;;;;4977458;28;20048;-86
2021/12/27 10:47:47;;;;;;;151.07;41.85;;;1.30;99.90;;;;;;4991131;28;20523;-85
2021/12/27 10:50:25;;;;;;;174.32;40.20;;;1.40;99.90;;;;;;4991485;28;20054;-86
2021/12/27 10:53:08;;;;;;;157.50;39.63;;;1.40;99.90;;;;;;4991199;28;20041;-86
2021/12/27 10:55:46;;;;;;;175.70;44.97;;;1.40;99.90;;;;;;4991228;28;20092;-86
2021/12/27 10:58:19;;;;;;;151.82;38.88;;;1.40;99.90;;;;;;4991241;28;20103;-86
2021/12/27 11:00:53;;;;;;;155.50;41.22;;;1.50;99.90;;;;;;4995050;28;20074;-86
2021/12/27 11:03:26;;;;;;;178.90;40.50;;;1.50;99.90;;;;;;4990719;28;20057;-86
2021/12/27 11:05:52;;;;;;;162.65;45.00;;;1.50;99.90;;;;;;4991541;28;20064;-86
2021/12/27 11:08:18;;;;;;;164.68;41.35;;;1.50;99.90;;;;;;4991461;28;20115;-86
2021/12/27 11:10:45;;;;;;;189.32;44.67;;;1.60;99.90;;;;;;4991349;28;20053;-86
2021/12/27 11:13:11;;;;;;;201.80;44.70;;;1.60;99.90;;;;;;4982016;28;20080;-86
2021/12/27 11:15:37;;;;;;;209.10;46.97;;;1.60;99.90;;;;;;4986873;28;20460;-86
2021/12/27 11:18:07;;;;;;;220.90;44.30;;;1.70;99.90;;;;;;4971238;28;20386;-86
2021/12/27 11:20:35;;;;;;;196.73;45.28;;;1.80;99.90;;;;;;4971356;28;20054;-86
2021/12/27 11:23:02;;;;;;;238.38;51.67;;;1.80;99.90;;;;;;4971665;28;20477;-86
2021/12/27 11:25:39;;;;;;;242.43;48.25;;;1.80;99.90;;;;;;4971735;28;20082;-86
2021/12/27 11:28:23;;;;;;;209.10;47.13;;;1.90;99.90;;;;;;4971130;28;20078;-86
2021/12/27 11:30:48;;;;;;;229.77;47.40;;;1.90;99.90;;;;;;4954993;28;20073;-86
2021/12/27 11:33:16;;;;;;;220.32;46.97;;;1.60;99.90;;;;;;4971131;28;20050;-86
2021/12/27 11:35:51;;;;;;;259.65;49.72;;;1.90;99.90;;;;;;4971108;28;20483;-86
2021/12/27 11:38:42;;;;;;;274.55;54.40;;;1.90;99.90;;;;;;4971014;28;20049;-86
2021/12/27 11:41:32;;;;;;;247.90;52.33;;;1.90;99.90;;;;;;4971058;28;20092;-86
2021/12/27 11:44:17;;;;;;;291.70;55.13;;;1.90;99.90;;;;;;4987456;28;20065;-86
2021/12/27 11:46:49;;;;;;;309.67;55.20;;;1.90;99.90;;;;;;4971142;28;20050;-86
2021/12/27 11:49:44;;;;;;;245.90;50.40;;;1.90;99.90;;;;;;4987264;28;20042;-86
2021/12/27 11:52:23;;;;;;;237.45;51.53;;;2.00;99.90;;;;;;4971208;28;20528;-86
2021/12/27 11:55:12;;;;;;;219.95;45.65;;;2.00;99.90;;;;;;4970769;28;20085;-86
2021/12/27 11:57:38;;;;;;;292.83;52.30;;;1.90;99.90;;;;;;4971157;28;20062;-86
2021/12/27 12:00:26;;;;;;;210.52;43.55;;;1.90;99.90;;;;;;4986777;28;20070;-85
2021/12/27 12:03:01;;;;;;;276.02;51.33;;;2.00;99.90;;;;;;4986941;28;20593;-86
2021/12/27 12:05:55;;;;;;;323.05;58.42;;;1.90;99.90;;;;;;4986765;28;20058;-86
2021/12/27 12:08:48;;;;;;;334.00;57.58;;;1.90;99.90;;;;;;4971665;28;20525;-86
2021/12/27 12:11:13;;;;;;;249.63;47.97;;;1.90;99.90;;;;;;4973961;28;20097;-86
2021/12/27 12:13:49;;;;;;;267.63;52.05;;;2.00;99.90;;;;;;4973764;28;20082;-86
2021/12/27 12:16:19;;;;;;;247.45;51.67;;;2.00;99.90;;;;;;4989782;28;20143;-86
2021/12/27 12:18:50;;;;;;;215.55;46.25;;;2.10;99.90;;;;;;4973250;28;20125;-86
2021/12/27 12:21:28;;;;;;;303.35;58.90;;;2.00;99.90;;;;;;4991993;28;20051;-86
2021/12/27 12:24:03;;;;;;;289.98;53.83;;;2.10;99.90;;;;;;4972814;28;20066;-86
2021/12/27 12:26:48;;;;;;;201.07;44.60;;;2.10;99.90;;;;;;4991873;28;20089;-86
2021/12/27 12:29:13;;;;;;;249.27;50.47;;;2.00;99.90;;;;;;4976082;28;20054;-86
2021/12/27 12:31:39;;;;;;;279.77;52.30;;;2.00;99.90;;;;;;4993629;28;20045;-86
2021/12/27 12:34:10;;;;;;;252.90;51.42;;;2.00;99.90;;;;;;4994030;28;20054;-86
2021/12/27 12:37:13;;;;;;;305.65;57.55;;;2.00;99.90;;;;;;4976266;28;20061;-86